Terminal Aerodrome Forecast
Issued by NWS Wilmington, OH

Current Version | Previous Version | Graphics & Text | Print | Product List | Glossary On
Versions: 1 2 3 4 5 6 7 8 9 10 11 12 13 14
258
FTUS41 KILN 171419 AAA
TAFCMH
TAF AMD
KCMH 171419Z 1714/1812 00000KT P6SM OVC011
     FM171600 03006KT P6SM VCSH BKN050
     FM172100 01006KT P6SM SCT050
     FM180000 VRB03KT P6SM SCT250=

USA.gov is the U.S. government's official web portal to all federal, state and local government web resources and services.